Terminal Aerodrome Forecast
Issued by NWS Albuquerque, NM

Home | Current Version | Previous Version | Text Only | Print | Product List | Glossary On
Versions: 1 2 3 4 5 6 7 8 9 10 11 12 13 14 15 16 17
000
FTUS45 KABQ 180500
TAFABQ
TAF
KABQ 180540Z 1806/1906 VRB05KT P6SM SCT025 OVC050
     FM181000 VRB04KT P6SM VCFG SCT025 BKN045
      TEMPO 1810/1814 4SM BR BKN015
     FM181700 30004KT P6SM BKN050=

USA.gov is the U.S. government's official web portal to all federal, state and local government web resources and services.